South Pasadena, Florida
Current Conditions -  °F | °C
As of 4:53 AM on Saturday 22 Nov 2014 (Local Time) from KSPG Reporting Station
Overcast Overcast  
Wind Chill: 64°   Ceiling: 5500
Heat Index: 64°   Visibility: 10mi
Dew Point: 60°   Wind: 13mph
Humidity: 87%   Direction: 60°ENE
Pressure: 30.18"   Gusts: NA
Location:  27.7562°N, 82.7184°W
Report Text: KSPG 220953Z AUTO 06011KT 10SM OVC055 18/16 A3018 RMK AO2 SLP219 T01780156
Loading
Personal Weather Stations






























Interactive Weather Map New forecast layout! Learn more

10-Day Weather Forecast

Advertisements
Track Severe Weather on mobile